Terminal Aerodrome Forecast
Issued by NWS

Home | Current Version | Previous Version | Text Only | Print | Product List | Glossary On
Versions: 1 2 3 4 5 6 7 8 9 10 11 12 13 14 15 16 17
915
FTUS46 KSEW 131133
TAFPAE
TAF
KPAE 131133Z 1312/1412 19012G18KT P6SM SCT022 BKN040
      TEMPO 1312/1315 -SHRA BKN022 OVC040
     FM131500 17012KT P6SM SCT025 BKN045
     FM132000 16012G20KT P6SM -RA OVC040
     FM140200 16012G20KT 5SM -RA SCT010 OVC018=

USA.gov is the U.S. government's official web portal to all federal, state and local government web resources and services.